sensor_id;sensor_type;location;lat;lon;timestamp;pressure;altitude;pressure_sealevel;temperature;humidity
2875;BME280;1445;52.600;13.328;2023-06-10T00:01:57;100979.28;;;17.67;nan
2875;BME280;1445;52.600;13.328;2023-06-10T00:04:26;100977.78;;;17.69;nan
2875;BME280;1445;52.600;13.328;2023-06-10T00:06:52;100980.78;;;17.64;nan
2875;BME280;1445;52.600;13.328;2023-06-10T00:09:19;100979.50;;;17.61;nan
2875;BME280;1445;52.600;13.328;2023-06-10T00:11:46;100975.59;;;17.41;nan
2875;BME280;1445;52.600;13.328;2023-06-10T00:14:12;100984.84;;;17.33;nan
2875;BME280;1445;52.600;13.328;2023-06-10T00:16:38;100987.03;;;17.49;nan
2875;BME280;1445;52.600;13.328;2023-06-10T00:19:04;100985.72;;;17.46;nan
2875;BME280;1445;52.600;13.328;2023-06-10T00:21:31;100990.34;;;17.42;nan
2875;BME280;1445;52.600;13.328;2023-06-10T00:24:04;100985.75;;;17.25;nan
2875;BME280;1445;52.600;13.328;2023-06-10T00:26:31;100986.28;;;17.18;nan
2875;BME280;1445;52.600;13.328;2023-06-10T00:28:56;100983.31;;;17.24;nan
2875;BME280;1445;52.600;13.328;2023-06-10T00:31:22;100989.44;;;17.17;nan
2875;BME280;1445;52.600;13.328;2023-06-10T00:33:47;100986.78;;;17.00;nan
2875;BME280;1445;52.600;13.328;2023-06-10T00:36:13;100980.72;;;17.18;nan
2875;BME280;1445;52.600;13.328;2023-06-10T00:38:38;100986.66;;;17.17;nan
2875;BME280;1445;52.600;13.328;2023-06-10T00:41:06;100989.16;;;17.10;nan
2875;BME280;1445;52.600;13.328;2023-06-10T00:43:32;100978.69;;;17.07;nan
2875;BME280;1445;52.600;13.328;2023-06-10T00:45:57;100972.50;;;17.01;nan
2875;BME280;1445;52.600;13.328;2023-06-10T00:48:23;100986.22;;;16.85;nan
2875;BME280;1445;52.600;13.328;2023-06-10T00:50:50;100982.41;;;16.90;nan
2875;BME280;1445;52.600;13.328;2023-06-10T00:53:16;100979.53;;;16.78;nan
2875;BME280;1445;52.600;13.328;2023-06-10T00:55:42;100986.78;;;16.70;nan
2875;BME280;1445;52.600;13.328;2023-06-10T00:58:08;100984.66;;;16.67;nan
2875;BME280;1445;52.600;13.328;2023-06-10T01:00:34;100977.59;;;16.69;nan
2875;BME280;1445;52.600;13.328;2023-06-10T01:03:00;100986.03;;;16.61;nan
2875;BME280;1445;52.600;13.328;2023-06-10T01:05:26;100988.72;;;16.78;nan
2875;BME280;1445;52.600;13.328;2023-06-10T01:08:07;100996.81;;;16.62;nan
2875;BME280;1445;52.600;13.328;2023-06-10T01:13:11;101003.03;;;16.59;nan
2875;BME280;1445;52.600;13.328;2023-06-10T01:15:38;101000.53;;;16.66;nan
2875;BME280;1445;52.600;13.328;2023-06-10T01:18:09;101006.41;;;16.74;nan
2875;BME280;1445;52.600;13.328;2023-06-10T01:20:36;101001.34;;;16.67;nan
2875;BME280;1445;52.600;13.328;2023-06-10T01:23:05;101005.97;;;16.63;nan
2875;BME280;1445;52.600;13.328;2023-06-10T01:25:31;100998.25;;;16.68;nan
2875;BME280;1445;52.600;13.328;2023-06-10T01:30:46;101007.34;;;16.57;nan
2875;BME280;1445;52.600;13.328;2023-06-10T01:33:17;101005.53;;;16.52;nan
2875;BME280;1445;52.600;13.328;2023-06-10T01:35:44;101006.28;;;16.32;nan
2875;BME280;1445;52.600;13.328;2023-06-10T01:38:12;101009.91;;;16.32;nan
2875;BME280;1445;52.600;13.328;2023-06-10T01:40:39;101018.34;;;16.44;nan
2875;BME280;1445;52.600;13.328;2023-06-10T01:43:06;101010.97;;;16.49;nan
2875;BME280;1445;52.600;13.328;2023-06-10T01:45:31;101014.56;;;16.49;nan
2875;BME280;1445;52.600;13.328;2023-06-10T01:47:57;101008.31;;;16.52;nan
2875;BME280;1445;52.600;13.328;2023-06-10T01:50:22;101013.16;;;16.34;nan
2875;BME280;1445;52.600;13.328;2023-06-10T01:52:48;101016.59;;;16.31;nan
2875;BME280;1445;52.600;13.328;2023-06-10T01:55:13;101016.28;;;16.33;nan
2875;BME280;1445;52.600;13.328;2023-06-10T01:57:39;101016.81;;;16.26;nan
2875;BME280;1445;52.600;13.328;2023-06-10T02:00:07;101026.13;;;16.21;nan
2875;BME280;1445;52.600;13.328;2023-06-10T02:02:33;101026.78;;;16.27;nan
2875;BME280;1445;52.600;13.328;2023-06-10T02:04:59;101025.09;;;16.35;nan
2875;BME280;1445;52.600;13.328;2023-06-10T02:07:25;101016.50;;;16.19;nan
2875;BME280;1445;52.600;13.328;2023-06-10T02:09:51;101026.72;;;15.97;nan
2875;BME280;1445;52.600;13.328;2023-06-10T02:12:16;101026.88;;;16.01;nan
2875;BME280;1445;52.600;13.328;2023-06-10T02:14:42;101031.47;;;15.97;nan
2875;BME280;1445;52.600;13.328;2023-06-10T02:17:07;101034.41;;;16.01;nan
2875;BME280;1445;52.600;13.328;2023-06-10T02:19:38;101033.09;;;15.98;nan
2875;BME280;1445;52.600;13.328;2023-06-10T02:22:09;101030.47;;;15.93;nan
2875;BME280;1445;52.600;13.328;2023-06-10T02:24:36;101029.66;;;15.92;nan
2875;BME280;1445;52.600;13.328;2023-06-10T02:27:04;101030.97;;;15.95;nan
2875;BME280;1445;52.600;13.328;2023-06-10T02:29:33;101034.06;;;16.02;nan
2875;BME280;1445;52.600;13.328;2023-06-10T02:31:59;101038.16;;;16.05;nan
2875;BME280;1445;52.600;13.328;2023-06-10T02:34:25;101041.09;;;15.99;nan
2875;BME280;1445;52.600;13.328;2023-06-10T02:36:50;101042.22;;;16.07;nan
2875;BME280;1445;52.600;13.328;2023-06-10T02:39:16;101038.31;;;16.08;nan
2875;BME280;1445;52.600;13.328;2023-06-10T02:41:42;101034.50;;;16.13;nan
2875;BME280;1445;52.600;13.328;2023-06-10T02:44:07;101035.22;;;16.01;nan
2875;BME280;1445;52.600;13.328;2023-06-10T02:46:33;101033.72;;;16.12;nan
2875;BME280;1445;52.600;13.328;2023-06-10T02:48:58;101035.38;;;16.05;nan
2875;BME280;1445;52.600;13.328;2023-06-10T02:51:24;101040.16;;;15.87;nan
2875;BME280;1445;52.600;13.328;2023-06-10T02:53:50;101040.63;;;15.89;nan
2875;BME280;1445;52.600;13.328;2023-06-10T02:56:16;101037.22;;;15.83;nan
2875;BME280;1445;52.600;13.328;2023-06-10T02:58:42;101036.53;;;15.95;nan
2875;BME280;1445;52.600;13.328;2023-06-10T03:01:08;101043.09;;;15.90;nan
2875;BME280;1445;52.600;13.328;2023-06-10T03:03:35;101037.84;;;15.97;nan
2875;BME280;1445;52.600;13.328;2023-06-10T03:06:02;101044.38;;;16.02;nan
2875;BME280;1445;52.600;13.328;2023-06-10T03:08:29;101038.03;;;15.84;nan
2875;BME280;1445;52.600;13.328;2023-06-10T03:10:55;101036.38;;;15.91;nan
2875;BME280;1445;52.600;13.328;2023-06-10T03:13:21;101038.50;;;15.94;nan
2875;BME280;1445;52.600;13.328;2023-06-10T03:15:46;101042.44;;;15.85;nan
2875;BME280;1445;52.600;13.328;2023-06-10T03:18:12;101046.38;;;15.84;nan
2875;BME280;1445;52.600;13.328;2023-06-10T03:20:38;101047.84;;;15.81;nan
2875;BME280;1445;52.600;13.328;2023-06-10T03:23:05;101050.78;;;15.85;nan
2875;BME280;1445;52.600;13.328;2023-06-10T03:25:33;101050.09;;;15.96;nan
2875;BME280;1445;52.600;13.328;2023-06-10T03:27:59;101053.72;;;15.97;nan
2875;BME280;1445;52.600;13.328;2023-06-10T03:30:25;101050.97;;;15.80;nan
2875;BME280;1445;52.600;13.328;2023-06-10T03:32:50;101056.53;;;15.80;nan
2875;BME280;1445;52.600;13.328;2023-06-10T03:35:16;101058.28;;;15.93;nan
2875;BME280;1445;52.600;13.328;2023-06-10T03:37:42;101062.41;;;15.87;nan
2875;BME280;1445;52.600;13.328;2023-06-10T03:40:09;101053.88;;;15.92;nan
2875;BME280;1445;52.600;13.328;2023-06-10T03:42:35;101057.63;;;15.96;nan
2875;BME280;1445;52.600;13.328;2023-06-10T03:45:02;101070.22;;;15.93;nan
2875;BME280;1445;52.600;13.328;2023-06-10T03:47:33;101074.34;;;15.87;nan
2875;BME280;1445;52.600;13.328;2023-06-10T03:50:06;101072.53;;;15.83;nan
2875;BME280;1445;52.600;13.328;2023-06-10T03:52:32;101070.56;;;15.92;nan
2875;BME280;1445;52.600;13.328;2023-06-10T03:54:57;101075.78;;;15.93;nan
2875;BME280;1445;52.600;13.328;2023-06-10T03:57:23;101075.97;;;15.80;nan
2875;BME280;1445;52.600;13.328;2023-06-10T03:59:48;101074.34;;;15.87;nan
2875;BME280;1445;52.600;13.328;2023-06-10T04:02:14;101068.91;;;16.08;nan
2875;BME280;1445;52.600;13.328;2023-06-10T04:04:40;101066.41;;;16.15;nan
2875;BME280;1445;52.600;13.328;2023-06-10T04:07:06;101062.28;;;16.30;nan
2875;BME280;1445;52.600;13.328;2023-06-10T04:09:33;101069.00;;;16.29;nan
2875;BME280;1445;52.600;13.328;2023-06-10T04:12:02;101064.50;;;16.45;nan
2875;BME280;1445;52.600;13.328;2023-06-10T04:14:31;101060.38;;;16.52;nan
2875;BME280;1445;52.600;13.328;2023-06-10T04:16:56;101065.00;;;16.39;nan
2875;BME280;1445;52.600;13.328;2023-06-10T04:19:22;101063.69;;;16.45;nan
2875;BME280;1445;52.600;13.328;2023-06-10T04:21:48;101059.91;;;16.50;nan
2875;BME280;1445;52.600;13.328;2023-06-10T04:24:13;101065.44;;;16.58;nan
2875;BME280;1445;52.600;13.328;2023-06-10T04:26:39;101053.13;;;16.68;nan
2875;BME280;1445;52.600;13.328;2023-06-10T04:29:04;101062.16;;;16.56;nan
2875;BME280;1445;52.600;13.328;2023-06-10T04:31:30;101056.22;;;16.75;nan
2875;BME280;1445;52.600;13.328;2023-06-10T04:33:57;101052.72;;;16.87;nan
2875;BME280;1445;52.600;13.328;2023-06-10T04:36:23;101059.91;;;16.88;nan
2875;BME280;1445;52.600;13.328;2023-06-10T04:38:49;101057.19;;;16.79;nan
2875;BME280;1445;52.600;13.328;2023-06-10T04:41:14;101055.09;;;16.67;nan
2875;BME280;1445;52.600;13.328;2023-06-10T04:43:40;101063.69;;;16.83;nan
2875;BME280;1445;52.600;13.328;2023-06-10T04:46:06;101058.47;;;16.82;nan
2875;BME280;1445;52.600;13.328;2023-06-10T04:48:32;101058.41;;;16.90;nan
2875;BME280;1445;52.600;13.328;2023-06-10T04:51:00;101058.16;;;17.04;nan
2875;BME280;1445;52.600;13.328;2023-06-10T04:53:26;101054.91;;;17.02;nan
2875;BME280;1445;52.600;13.328;2023-06-10T04:55:54;101072.59;;;17.06;nan
2875;BME280;1445;52.600;13.328;2023-06-10T04:58:19;101070.88;;;17.14;nan
2875;BME280;1445;52.600;13.328;2023-06-10T05:00:45;101062.94;;;17.25;nan
2875;BME280;1445;52.600;13.328;2023-06-10T05:03:10;101065.88;;;17.28;nan
2875;BME280;1445;52.600;13.328;2023-06-10T05:05:36;101073.88;;;17.30;nan
2875;BME280;1445;52.600;13.328;2023-06-10T05:08:01;101072.88;;;17.34;nan
2875;BME280;1445;52.600;13.328;2023-06-10T05:10:27;101068.97;;;17.48;nan
2875;BME280;1445;52.600;13.328;2023-06-10T05:12:57;101075.41;;;17.48;nan
2875;BME280;1445;52.600;13.328;2023-06-10T05:15:23;101067.56;;;17.62;nan
2875;BME280;1445;52.600;13.328;2023-06-10T05:17:48;101070.34;;;17.62;nan
2875;BME280;1445;52.600;13.328;2023-06-10T05:20:14;101082.22;;;17.72;nan
2875;BME280;1445;52.600;13.328;2023-06-10T05:22:40;101072.03;;;17.76;nan
2875;BME280;1445;52.600;13.328;2023-06-10T05:25:06;101073.88;;;17.72;nan
2875;BME280;1445;52.600;13.328;2023-06-10T05:27:32;101076.66;;;17.72;nan
2875;BME280;1445;52.600;13.328;2023-06-10T05:29:57;101075.50;;;17.94;nan
2875;BME280;1445;52.600;13.328;2023-06-10T05:32:23;101075.72;;;17.88;nan
2875;BME280;1445;52.600;13.328;2023-06-10T05:34:49;101077.84;;;18.04;nan
2875;BME280;1445;52.600;13.328;2023-06-10T05:37:14;101078.94;;;18.24;nan
2875;BME280;1445;52.600;13.328;2023-06-10T05:39:40;101072.44;;;18.32;nan
2875;BME280;1445;52.600;13.328;2023-06-10T05:42:06;101071.06;;;18.38;nan
2875;BME280;1445;52.600;13.328;2023-06-10T05:44:32;101065.72;;;18.45;nan
2875;BME280;1445;52.600;13.328;2023-06-10T05:46:58;101068.53;;;18.57;nan
2875;BME280;1445;52.600;13.328;2023-06-10T05:49:24;101062.84;;;18.66;nan
2875;BME280;1445;52.600;13.328;2023-06-10T05:51:49;101074.63;;;18.72;nan
2875;BME280;1445;52.600;13.328;2023-06-10T05:54:15;101070.44;;;18.78;nan
2875;BME280;1445;52.600;13.328;2023-06-10T05:56:40;101061.34;;;18.81;nan
2875;BME280;1445;52.600;13.328;2023-06-10T05:59:06;101062.06;;;19.02;nan
2875;BME280;1445;52.600;13.328;2023-06-10T06:01:32;101062.59;;;19.20;nan
2875;BME280;1445;52.600;13.328;2023-06-10T06:03:57;101061.47;;;19.37;nan
2875;BME280;1445;52.600;13.328;2023-06-10T06:06:23;101065.88;;;19.50;nan
2875;BME280;1445;52.600;13.328;2023-06-10T06:08:49;101061.03;;;19.75;nan
2875;BME280;1445;52.600;13.328;2023-06-10T06:11:14;101056.91;;;19.85;nan
2875;BME280;1445;52.600;13.328;2023-06-10T06:13:40;101061.09;;;19.91;nan
2875;BME280;1445;52.600;13.328;2023-06-10T06:16:07;101065.00;;;20.02;nan
2875;BME280;1445;52.600;13.328;2023-06-10T06:18:33;101066.38;;;20.09;nan
2875;BME280;1445;52.600;13.328;2023-06-10T06:20:59;101071.75;;;20.01;nan
2875;BME280;1445;52.600;13.328;2023-06-10T06:23:25;101076.78;;;19.96;nan
2875;BME280;1445;52.600;13.328;2023-06-10T06:25:50;101069.69;;;19.98;nan
2875;BME280;1445;52.600;13.328;2023-06-10T06:28:17;101073.91;;;19.92;nan
2875;BME280;1445;52.600;13.328;2023-06-10T06:30:44;101076.09;;;19.99;nan
2875;BME280;1445;52.600;13.328;2023-06-10T06:33:10;101069.88;;;20.06;nan
2875;BME280;1445;52.600;13.328;2023-06-10T06:35:35;101084.25;;;20.20;nan
2875;BME280;1445;52.600;13.328;2023-06-10T06:38:03;101081.13;;;20.37;nan
2875;BME280;1445;52.600;13.328;2023-06-10T06:40:29;101085.00;;;20.48;nan
2875;BME280;1445;52.600;13.328;2023-06-10T06:42:55;101079.97;;;20.54;nan
2875;BME280;1445;52.600;13.328;2023-06-10T06:45:20;101074.09;;;20.75;nan
2875;BME280;1445;52.600;13.328;2023-06-10T06:47:46;101076.59;;;20.96;nan
2875;BME280;1445;52.600;13.328;2023-06-10T06:50:12;101076.56;;;21.12;nan
2875;BME280;1445;52.600;13.328;2023-06-10T06:52:37;101082.56;;;21.46;nan
2875;BME280;1445;52.600;13.328;2023-06-10T06:55:03;101075.31;;;21.64;nan
2875;BME280;1445;52.600;13.328;2023-06-10T06:57:29;101074.00;;;21.77;nan
2875;BME280;1445;52.600;13.328;2023-06-10T06:59:54;101079.09;;;21.91;nan
2875;BME280;1445;52.600;13.328;2023-06-10T07:02:20;101075.28;;;22.03;nan
2875;BME280;1445;52.600;13.328;2023-06-10T07:04:45;101069.94;;;22.36;nan
2875;BME280;1445;52.600;13.328;2023-06-10T07:07:14;101076.28;;;22.56;nan
2875;BME280;1445;52.600;13.328;2023-06-10T07:09:39;101082.09;;;22.67;nan
2875;BME280;1445;52.600;13.328;2023-06-10T07:12:05;101079.72;;;22.69;nan
2875;BME280;1445;52.600;13.328;2023-06-10T07:14:31;101082.31;;;22.81;nan
2875;BME280;1445;52.600;13.328;2023-06-10T07:16:57;101084.59;;;22.72;nan
2875;BME280;1445;52.600;13.328;2023-06-10T07:19:22;101086.09;;;22.66;nan
2875;BME280;1445;52.600;13.328;2023-06-10T07:21:48;101104.00;;;22.81;nan
2875;BME280;1445;52.600;13.328;2023-06-10T07:24:13;101090.19;;;22.95;nan
2875;BME280;1445;52.600;13.328;2023-06-10T07:26:39;101090.75;;;22.81;nan
2875;BME280;1445;52.600;13.328;2023-06-10T07:29:04;101093.69;;;22.89;nan
2875;BME280;1445;52.600;13.328;2023-06-10T07:31:30;101094.47;;;23.12;nan
2875;BME280;1445;52.600;13.328;2023-06-10T07:33:56;101093.75;;;23.45;nan
2875;BME280;1445;52.600;13.328;2023-06-10T07:36:21;101093.16;;;23.93;nan
2875;BME280;1445;52.600;13.328;2023-06-10T07:38:47;101091.63;;;24.36;nan
2875;BME280;1445;52.600;13.328;2023-06-10T07:41:12;101091.22;;;24.79;nan
2875;BME280;1445;52.600;13.328;2023-06-10T07:43:39;101093.13;;;25.15;nan
2875;BME280;1445;52.600;13.328;2023-06-10T07:46:05;101102.97;;;25.43;nan
2875;BME280;1445;52.600;13.328;2023-06-10T07:48:31;101100.16;;;25.46;nan
2875;BME280;1445;52.600;13.328;2023-06-10T07:50:56;101103.91;;;25.76;nan
2875;BME280;1445;52.600;13.328;2023-06-10T07:53:22;101098.19;;;25.58;nan
2875;BME280;1445;52.600;13.328;2023-06-10T07:55:48;101096.50;;;25.42;nan
2875;BME280;1445;52.600;13.328;2023-06-10T07:58:13;101100.09;;;25.32;nan
2875;BME280;1445;52.600;13.328;2023-06-10T08:00:39;101101.34;;;25.38;nan
2875;BME280;1445;52.600;13.328;2023-06-10T08:03:04;101107.84;;;25.53;nan
2875;BME280;1445;52.600;13.328;2023-06-10T08:05:30;101102.13;;;25.35;nan
2875;BME280;1445;52.600;13.328;2023-06-10T08:07:56;101105.34;;;25.37;nan
2875;BME280;1445;52.600;13.328;2023-06-10T08:10:21;101113.38;;;25.32;nan
2875;BME280;1445;52.600;13.328;2023-06-10T08:12:47;101112.63;;;24.87;nan
2875;BME280;1445;52.600;13.328;2023-06-10T08:15:12;101115.81;;;24.82;nan
2875;BME280;1445;52.600;13.328;2023-06-10T08:17:38;101118.94;;;24.69;nan
2875;BME280;1445;52.600;13.328;2023-06-10T08:20:05;101122.63;;;24.77;nan
2875;BME280;1445;52.600;13.328;2023-06-10T08:22:31;101124.75;;;24.91;nan
2875;BME280;1445;52.600;13.328;2023-06-10T08:24:57;101125.25;;;25.04;nan
2875;BME280;1445;52.600;13.328;2023-06-10T08:27:22;101126.56;;;25.13;nan
2875;BME280;1445;52.600;13.328;2023-06-10T08:29:48;101135.97;;;25.32;nan
2875;BME280;1445;52.600;13.328;2023-06-10T08:32:14;101129.16;;;25.43;nan
2875;BME280;1445;52.600;13.328;2023-06-10T08:34:39;101138.44;;;25.40;nan
2875;BME280;1445;52.600;13.328;2023-06-10T08:37:05;101134.78;;;25.36;nan
2875;BME280;1445;52.600;13.328;2023-06-10T08:39:30;101142.38;;;25.29;nan
2875;BME280;1445;52.600;13.328;2023-06-10T08:44:38;101138.44;;;24.89;nan
2875;BME280;1445;52.600;13.328;2023-06-10T08:47:13;101145.03;;;25.07;nan
2875;BME280;1445;52.600;13.328;2023-06-10T08:49:43;101144.72;;;25.19;nan
2875;BME280;1445;52.600;13.328;2023-06-10T08:52:14;101146.38;;;25.20;nan
2875;BME280;1445;52.600;13.328;2023-06-10T08:54:43;101144.78;;;25.27;nan
2875;BME280;1445;52.600;13.328;2023-06-10T08:57:08;101151.22;;;25.23;nan
2875;BME280;1445;52.600;13.328;2023-06-10T08:59:34;101142.38;;;25.29;nan
2875;BME280;1445;52.600;13.328;2023-06-10T09:02:00;101147.31;;;25.42;nan
2875;BME280;1445;52.600;13.328;2023-06-10T09:04:28;101142.88;;;25.41;nan
2875;BME280;1445;52.600;13.328;2023-06-10T09:06:54;101137.69;;;25.54;nan
2875;BME280;1445;52.600;13.328;2023-06-10T09:09:22;101146.59;;;25.56;nan
2875;BME280;1445;52.600;13.328;2023-06-10T09:11:48;101143.97;;;25.92;nan
2875;BME280;1445;52.600;13.328;2023-06-10T09:14:14;101147.22;;;25.94;nan
2875;BME280;1445;52.600;13.328;2023-06-10T09:16:41;101145.22;;;26.02;nan
2875;BME280;1445;52.600;13.328;2023-06-10T09:19:07;101144.31;;;25.80;nan
2875;BME280;1445;52.600;13.328;2023-06-10T09:21:34;101145.13;;;25.80;nan
2875;BME280;1445;52.600;13.328;2023-06-10T09:24:00;101142.13;;;25.55;nan
2875;BME280;1445;52.600;13.328;2023-06-10T09:26:29;101139.22;;;25.41;nan
2875;BME280;1445;52.600;13.328;2023-06-10T09:29:05;101144.13;;;25.47;nan
2875;BME280;1445;52.600;13.328;2023-06-10T09:31:32;101152.59;;;25.51;nan
2875;BME280;1445;52.600;13.328;2023-06-10T09:34:13;101148.94;;;25.47;nan
2875;BME280;1445;52.600;13.328;2023-06-10T09:36:40;101149.72;;;25.40;nan
2875;BME280;1445;52.600;13.328;2023-06-10T09:39:14;101149.53;;;25.15;nan
2875;BME280;1445;52.600;13.328;2023-06-10T09:41:41;101150.22;;;25.02;nan
2875;BME280;1445;52.600;13.328;2023-06-10T09:44:16;101155.19;;;24.71;nan
2875;BME280;1445;52.600;13.328;2023-06-10T09:46:42;101149.34;;;24.49;nan
2875;BME280;1445;52.600;13.328;2023-06-10T09:49:10;101141.94;;;24.38;nan
2875;BME280;1445;52.600;13.328;2023-06-10T09:51:36;101141.84;;;24.27;nan
2875;BME280;1445;52.600;13.328;2023-06-10T09:54:02;101145.75;;;24.15;nan
2875;BME280;1445;52.600;13.328;2023-06-10T09:56:35;101139.59;;;24.06;nan
2875;BME280;1445;52.600;13.328;2023-06-10T09:59:01;101145.75;;;24.15;nan
2875;BME280;1445;52.600;13.328;2023-06-10T10:01:27;101139.09;;;24.00;nan
2875;BME280;1445;52.600;13.328;2023-06-10T10:03:53;101149.88;;;23.91;nan
2875;BME280;1445;52.600;13.328;2023-06-10T10:06:19;101148.66;;;23.92;nan
2875;BME280;1445;52.600;13.328;2023-06-10T10:08:47;101144.28;;;23.95;nan
2875;BME280;1445;52.600;13.328;2023-06-10T10:11:14;101145.28;;;23.79;nan
2875;BME280;1445;52.600;13.328;2023-06-10T10:13:41;101141.34;;;23.84;nan
2875;BME280;1445;52.600;13.328;2023-06-10T10:16:12;101144.97;;;23.85;nan
2875;BME280;1445;52.600;13.328;2023-06-10T10:18:46;101148.09;;;23.79;nan
2875;BME280;1445;52.600;13.328;2023-06-10T10:21:16;101161.09;;;23.88;nan
2875;BME280;1445;52.600;13.328;2023-06-10T10:23:54;101156.13;;;23.77;nan
2875;BME280;1445;52.600;13.328;2023-06-10T10:26:25;101149.78;;;23.57;nan
2875;BME280;1445;52.600;13.328;2023-06-10T10:31:27;101156.22;;;23.28;nan
2875;BME280;1445;52.600;13.328;2023-06-10T10:33:58;101150.53;;;23.24;nan
2875;BME280;1445;52.600;13.328;2023-06-10T10:36:25;101153.59;;;23.16;nan
2875;BME280;1445;52.600;13.328;2023-06-10T10:38:51;101156.34;;;23.12;nan
2875;BME280;1445;52.600;13.328;2023-06-10T10:41:18;101156.19;;;22.78;nan
2875;BME280;1445;52.600;13.328;2023-06-10T10:43:45;101154.63;;;22.38;nan
2875;BME280;1445;52.600;13.328;2023-06-10T10:46:13;101168.53;;;22.12;nan
2875;BME280;1445;52.600;13.328;2023-06-10T10:48:39;101177.16;;;22.19;nan
2875;BME280;1445;52.600;13.328;2023-06-10T10:51:09;101169.59;;;22.23;nan
2875;BME280;1445;52.600;13.328;2023-06-10T10:53:37;101165.97;;;22.23;nan
2875;BME280;1445;52.600;13.328;2023-06-10T10:56:12;101153.09;;;22.41;nan
2875;BME280;1445;52.600;13.328;2023-06-10T10:58:39;101142.56;;;22.57;nan
2875;BME280;1445;52.600;13.328;2023-06-10T11:01:12;101135.88;;;22.89;nan
2875;BME280;1445;52.600;13.328;2023-06-10T11:03:45;101134.75;;;23.20;nan
2875;BME280;1445;52.600;13.328;2023-06-10T11:06:16;101123.25;;;23.58;nan
2875;BME280;1445;52.600;13.328;2023-06-10T11:11:24;101111.19;;;23.85;nan
2875;BME280;1445;52.600;13.328;2023-06-10T11:16:42;101109.94;;;22.53;nan
2875;BME280;1445;52.600;13.328;2023-06-10T11:19:09;101110.38;;;21.54;nan
2875;BME280;1445;52.600;13.328;2023-06-10T11:22:07;101125.78;;;21.44;nan
2875;BME280;1445;52.600;13.328;2023-06-10T11:24:33;101126.56;;;21.41;nan
2875;BME280;1445;52.600;13.328;2023-06-10T11:27:15;101104.25;;;21.49;nan
2875;BME280;1445;52.600;13.328;2023-06-10T11:32:32;101144.00;;;21.89;nan
2875;BME280;1445;52.600;13.328;2023-06-10T11:34:59;101143.56;;;22.07;nan
2875;BME280;1445;52.600;13.328;2023-06-10T11:37:25;101129.53;;;22.26;nan
2875;BME280;1445;52.600;13.328;2023-06-10T11:39:54;101140.00;;;22.72;nan
2875;BME280;1445;52.600;13.328;2023-06-10T11:42:21;101131.59;;;23.21;nan
2875;BME280;1445;52.600;13.328;2023-06-10T11:44:54;101117.47;;;23.74;nan
2875;BME280;1445;52.600;13.328;2023-06-10T11:47:20;101122.84;;;24.20;nan
2875;BME280;1445;52.600;13.328;2023-06-10T11:49:56;101119.47;;;24.86;nan
2875;BME280;1445;52.600;13.328;2023-06-10T11:52:31;101116.94;;;25.91;nan
2875;BME280;1445;52.600;13.328;2023-06-10T11:55:05;101107.41;;;27.31;nan
2875;BME280;1445;52.600;13.328;2023-06-10T11:57:34;101103.03;;;29.19;nan
2875;BME280;1445;52.600;13.328;2023-06-10T12:00:05;101098.09;;;30.80;nan
2875;BME280;1445;52.600;13.328;2023-06-10T12:02:31;101090.19;;;31.54;nan
2875;BME280;1445;52.600;13.328;2023-06-10T12:05:10;101087.88;;;32.74;nan
2875;BME280;1445;52.600;13.328;2023-06-10T12:07:35;101091.53;;;34.20;nan
2875;BME280;1445;52.600;13.328;2023-06-10T12:10:01;101093.22;;;34.82;nan
2875;BME280;1445;52.600;13.328;2023-06-10T12:12:26;101082.94;;;35.41;nan
2875;BME280;1445;52.600;13.328;2023-06-10T12:20:06;101082.91;;;36.07;nan
2875;BME280;1445;52.600;13.328;2023-06-10T12:22:41;101083.94;;;36.63;nan
2875;BME280;1445;52.600;13.328;2023-06-10T12:25:08;101083.06;;;36.03;nan
2875;BME280;1445;52.600;13.328;2023-06-10T12:27:34;101080.56;;;36.55;nan
2875;BME280;1445;52.600;13.328;2023-06-10T12:30:04;101074.44;;;37.02;nan
2875;BME280;1445;52.600;13.328;2023-06-10T12:32:43;101076.13;;;37.92;nan
2875;BME280;1445;52.600;13.328;2023-06-10T12:35:10;101077.88;;;38.65;nan
2875;BME280;1445;52.600;13.328;2023-06-10T12:37:38;101073.50;;;38.46;nan
2875;BME280;1445;52.600;13.328;2023-06-10T12:40:05;101082.97;;;38.70;nan
2875;BME280;1445;52.600;13.328;2023-06-10T12:42:37;101067.84;;;38.18;nan
2875;BME280;1445;52.600;13.328;2023-06-10T12:45:07;101063.00;;;39.29;nan
2875;BME280;1445;52.600;13.328;2023-06-10T12:47:36;101055.94;;;39.45;nan
2875;BME280;1445;52.600;13.328;2023-06-10T12:50:05;101055.81;;;39.25;nan
2875;BME280;1445;52.600;13.328;2023-06-10T12:52:31;101043.00;;;39.55;nan
2875;BME280;1445;52.600;13.328;2023-06-10T12:54:58;101033.69;;;39.46;nan
2875;BME280;1445;52.600;13.328;2023-06-10T12:57:26;101042.25;;;39.16;nan
2875;BME280;1445;52.600;13.328;2023-06-10T12:59:52;101038.94;;;39.77;nan
2875;BME280;1445;52.600;13.328;2023-06-10T13:02:21;101039.22;;;39.34;nan
2875;BME280;1445;52.600;13.328;2023-06-10T13:05:00;101031.56;;;40.05;nan
2875;BME280;1445;52.600;13.328;2023-06-10T13:07:27;101031.88;;;39.48;nan
2875;BME280;1445;52.600;13.328;2023-06-10T13:09:53;101037.53;;;40.17;nan
2875;BME280;1445;52.600;13.328;2023-06-10T13:12:18;101019.31;;;39.96;nan
2875;BME280;1445;52.600;13.328;2023-06-10T13:14:44;101023.03;;;40.31;nan
2875;BME280;1445;52.600;13.328;2023-06-10T13:17:12;101021.81;;;40.03;nan
2875;BME280;1445;52.600;13.328;2023-06-10T13:19:38;101026.34;;;41.27;nan
2875;BME280;1445;52.600;13.328;2023-06-10T13:22:04;101014.53;;;41.56;nan
2875;BME280;1445;52.600;13.328;2023-06-10T13:24:29;101014.25;;;41.02;nan
2875;BME280;1445;52.600;13.328;2023-06-10T13:26:55;101013.81;;;41.09;nan
2875;BME280;1445;52.600;13.328;2023-06-10T13:29:21;101013.88;;;41.15;nan
2875;BME280;1445;52.600;13.328;2023-06-10T13:31:47;101013.81;;;41.09;nan
2875;BME280;1445;52.600;13.328;2023-06-10T13:34:12;101014.53;;;40.84;nan
2875;BME280;1445;52.600;13.328;2023-06-10T13:36:41;101007.97;;;41.04;nan
2875;BME280;1445;52.600;13.328;2023-06-10T13:39:06;101008.72;;;41.82;nan
2875;BME280;1445;52.600;13.328;2023-06-10T13:41:35;100998.25;;;41.59;nan
2875;BME280;1445;52.600;13.328;2023-06-10T13:44:00;101004.41;;;41.72;nan
2875;BME280;1445;52.600;13.328;2023-06-10T13:46:26;100989.19;;;41.77;nan